createdAt,value
2018-03-24T00:01:35.772Z,6.98
2018-03-24T00:04:03.182Z,6.89
2018-03-24T00:06:30.564Z,6.71
2018-03-24T00:08:57.948Z,6.70
2018-03-24T00:11:25.349Z,6.66
2018-03-24T00:13:52.721Z,6.61
2018-03-24T00:16:20.104Z,6.54
2018-03-24T00:18:47.496Z,6.49
2018-03-24T00:21:14.872Z,6.44
2018-03-24T00:23:42.253Z,6.39
2018-03-24T00:26:09.648Z,6.31
2018-03-24T00:28:37.025Z,6.19
2018-03-24T00:31:04.411Z,6.06
2018-03-24T00:33:31.808Z,5.95
2018-03-24T00:35:59.185Z,5.84
2018-03-24T00:38:26.560Z,5.76
2018-03-24T00:40:53.950Z,5.59
2018-03-24T00:43:21.332Z,5.54
2018-03-24T00:45:48.709Z,5.52
2018-03-24T00:48:16.096Z,5.38
2018-03-24T00:50:43.618Z,5.35
2018-03-24T00:53:10.992Z,5.30
2018-03-24T00:55:38.384Z,5.13
2018-03-24T00:58:05.778Z,5.00
2018-03-24T01:00:33.156Z,4.95
2018-03-24T01:03:00.548Z,4.95
2018-03-24T01:05:27.936Z,4.90
2018-03-24T01:07:55.316Z,4.83
2018-03-24T01:10:22.709Z,4.82
2018-03-24T01:12:50.090Z,4.76
2018-03-24T01:15:17.465Z,4.69
2018-03-24T01:17:44.867Z,4.67
2018-03-24T01:20:12.241Z,4.66
2018-03-24T01:22:39.618Z,4.61
2018-03-24T01:25:07.004Z,4.58
2018-03-24T01:27:34.381Z,4.52
2018-03-24T01:30:01.762Z,4.49
2018-03-24T01:32:29.167Z,4.42
2018-03-24T01:34:56.553Z,4.43
2018-03-24T01:37:23.941Z,4.39
2018-03-24T01:39:51.332Z,4.34
2018-03-24T01:42:18.721Z,4.31
2018-03-24T01:44:46.109Z,4.27
2018-03-24T01:47:13.525Z,4.32
2018-03-24T01:49:40.910Z,4.34
2018-03-24T01:52:08.298Z,4.35
2018-03-24T01:54:35.713Z,4.35
2018-03-24T01:57:03.096Z,4.28
2018-03-24T01:59:30.492Z,4.22
2018-03-24T02:01:57.884Z,4.16
2018-03-24T02:04:25.268Z,4.12
2018-03-24T02:06:52.670Z,4.16
2018-03-24T02:09:20.057Z,4.16
2018-03-24T02:11:47.451Z,4.08
2018-03-24T02:14:14.848Z,4.00
2018-03-24T02:16:42.232Z,4.03
2018-03-24T02:19:09.620Z,4.01
2018-03-24T02:21:37.956Z,4.07
2018-03-24T02:24:05.340Z,3.95
2018-03-24T02:26:32.736Z,3.90
2018-03-24T02:29:00.135Z,3.91
2018-03-24T02:31:27.520Z,3.89
2018-03-24T02:33:54.920Z,3.86
2018-03-24T02:36:22.325Z,3.85
2018-03-24T02:38:49.716Z,3.82
2018-03-24T02:41:17.117Z,3.81
2018-03-24T02:43:44.524Z,3.76
2018-03-24T02:46:11.914Z,3.78
2018-03-24T02:48:39.305Z,3.78
2018-03-24T02:51:06.708Z,3.80
2018-03-24T02:53:34.097Z,3.75
2018-03-24T02:56:01.496Z,3.70
2018-03-24T02:58:28.890Z,3.67
2018-03-24T03:00:56.277Z,3.67
2018-03-24T03:03:23.660Z,3.65
2018-03-24T03:05:51.145Z,3.66
2018-03-24T03:08:18.533Z,3.63
2018-03-24T03:10:45.928Z,3.63
2018-03-24T03:13:13.329Z,3.60
2018-03-24T03:15:40.720Z,3.64
2018-03-24T03:18:08.137Z,3.64
2018-03-24T03:20:35.504Z,3.61
2018-03-24T03:23:02.892Z,3.59
2018-03-24T03:25:30.287Z,3.60
2018-03-24T03:27:57.713Z,3.60
2018-03-24T03:33:29.828Z,3.62
2018-03-24T03:35:57.243Z,3.64
2018-03-24T03:38:24.632Z,3.59
2018-03-24T03:40:52.013Z,3.58
2018-03-24T03:43:19.410Z,3.60
2018-03-24T03:45:46.793Z,3.63
2018-03-24T03:48:14.470Z,3.61
2018-03-24T03:50:41.852Z,3.62
2018-03-24T03:53:09.242Z,3.57
2018-03-24T03:55:36.644Z,3.63
2018-03-24T03:58:04.552Z,3.58
2018-03-24T04:00:31.949Z,3.54
2018-03-24T04:02:59.351Z,3.55
2018-03-24T04:05:26.737Z,3.50
2018-03-24T04:07:54.136Z,3.47
2018-03-24T04:10:21.529Z,3.48
2018-03-24T04:12:48.921Z,3.43
2018-03-24T04:15:16.312Z,3.41
2018-03-24T04:17:43.704Z,3.37
2018-03-24T04:20:11.092Z,3.41
2018-03-24T04:22:38.489Z,3.37
2018-03-24T04:25:05.884Z,3.37
2018-03-24T04:27:33.287Z,3.32
2018-03-24T04:30:00.676Z,3.30
2018-03-24T04:32:28.065Z,3.34
2018-03-24T04:34:55.464Z,3.35
2018-03-24T04:37:22.849Z,3.35
2018-03-24T04:39:50.266Z,3.34
2018-03-24T04:42:17.661Z,3.29
2018-03-24T04:44:45.037Z,3.25
2018-03-24T04:47:12.433Z,3.24
2018-03-24T04:49:39.817Z,3.24
2018-03-24T04:52:07.237Z,3.30
2018-03-24T04:54:34.641Z,3.41
2018-03-24T04:57:02.021Z,3.52
2018-03-24T04:59:29.416Z,3.62
2018-03-24T05:01:56.803Z,3.74
2018-03-24T05:04:24.196Z,3.86
2018-03-24T05:06:51.593Z,3.91
2018-03-24T05:09:18.993Z,4.02
2018-03-24T05:11:46.377Z,4.10
2018-03-24T05:14:13.774Z,4.15
2018-03-24T05:16:41.482Z,4.22
2018-03-24T05:19:08.883Z,4.23
2018-03-24T05:21:36.264Z,4.31
2018-03-24T05:24:03.656Z,4.34
2018-03-24T05:26:31.062Z,4.28
2018-03-24T05:28:58.456Z,4.29
2018-03-24T05:31:25.858Z,4.33
2018-03-24T05:33:53.247Z,4.41
2018-03-24T05:36:20.632Z,4.40
2018-03-24T05:38:48.017Z,4.44
2018-03-24T05:41:15.429Z,4.44
2018-03-24T05:43:42.821Z,4.49
2018-03-24T05:46:10.217Z,4.51
2018-03-24T05:48:37.676Z,4.56
2018-03-24T05:51:04.985Z,4.67
2018-03-24T05:53:32.372Z,4.70
2018-03-24T05:55:59.845Z,4.72
2018-03-24T05:58:27.224Z,4.76
2018-03-24T06:00:54.616Z,4.86
2018-03-24T06:03:22.020Z,4.85
2018-03-24T06:05:49.412Z,4.94
2018-03-24T06:08:16.788Z,5.02
2018-03-24T06:10:44.196Z,5.09
2018-03-24T06:13:11.570Z,5.13
2018-03-24T06:15:38.951Z,5.15
2018-03-24T06:18:06.328Z,5.22
2018-03-24T06:20:33.720Z,5.18
2018-03-24T06:23:01.108Z,5.24
2018-03-24T06:25:28.519Z,5.27
2018-03-24T06:27:55.900Z,5.25
2018-03-24T06:30:25.816Z,5.30
2018-03-24T06:32:53.229Z,5.36
2018-03-24T06:35:20.603Z,5.47
2018-03-24T06:37:47.993Z,5.56
2018-03-24T06:40:15.383Z,5.60
2018-03-24T06:42:42.765Z,5.68
2018-03-24T06:45:10.177Z,5.78
2018-03-24T06:47:37.560Z,5.88
2018-03-24T06:50:04.936Z,5.89
2018-03-24T06:52:33.049Z,6.02
2018-03-24T06:55:00.424Z,6.09
2018-03-24T06:57:27.821Z,6.18
2018-03-24T06:59:55.874Z,6.20
2018-03-24T07:02:23.236Z,6.15
2018-03-24T07:04:50.685Z,6.18
2018-03-24T07:07:18.068Z,6.19
2018-03-24T07:09:45.493Z,6.17
2018-03-24T07:12:13.244Z,6.13
2018-03-24T07:14:40.645Z,6.16
2018-03-24T07:17:08.057Z,6.23
2018-03-24T07:19:35.456Z,6.26
2018-03-24T07:22:02.848Z,6.29
2018-03-24T07:24:30.240Z,6.34
2018-03-24T07:26:57.645Z,6.34
2018-03-24T07:29:25.060Z,6.43
2018-03-24T07:31:52.457Z,6.47
2018-03-24T07:34:19.900Z,6.51
2018-03-24T07:36:47.298Z,6.58
2018-03-24T07:39:14.715Z,6.69
2018-03-24T07:41:42.111Z,6.73
2018-03-24T07:44:09.538Z,6.78
2018-03-24T07:46:36.929Z,6.81
2018-03-24T07:49:04.385Z,6.95
2018-03-24T07:51:31.812Z,6.92
2018-03-24T07:53:59.182Z,7.01
2018-03-24T07:56:26.564Z,7.12
2018-03-24T07:58:53.952Z,7.25
2018-03-24T08:01:21.346Z,7.37
2018-03-24T08:03:48.724Z,7.41
2018-03-24T08:06:16.136Z,7.46
2018-03-24T08:08:43.512Z,7.51
2018-03-24T08:11:10.901Z,7.63
2018-03-24T08:13:38.301Z,7.70
2018-03-24T08:16:05.713Z,7.70
2018-03-24T08:18:33.156Z,7.78
2018-03-24T08:21:00.525Z,7.88
2018-03-24T08:23:27.954Z,8.00
2018-03-24T08:25:55.329Z,8.09
2018-03-24T08:28:22.713Z,8.22
2018-03-24T08:30:50.121Z,8.37
2018-03-24T08:33:17.549Z,8.49
2018-03-24T08:35:45.004Z,8.59
2018-03-24T08:38:12.404Z,8.74
2018-03-24T08:40:39.814Z,8.81
2018-03-24T08:43:07.210Z,8.86
2018-03-24T08:45:34.600Z,8.97
2018-03-24T08:48:02.005Z,9.10
2018-03-24T08:50:29.378Z,9.25
2018-03-24T08:52:56.885Z,9.37
2018-03-24T08:55:24.243Z,9.42
2018-03-24T08:57:51.609Z,9.52
2018-03-24T09:00:19.028Z,9.61
2018-03-24T09:02:46.393Z,9.62
2018-03-24T09:05:13.779Z,9.71
2018-03-24T09:07:41.156Z,9.87
2018-03-24T09:10:08.541Z,9.97
2018-03-24T09:12:35.941Z,10.15
2018-03-24T09:15:03.386Z,10.22
2018-03-24T09:17:30.714Z,10.25
2018-03-24T09:19:58.096Z,10.33
2018-03-24T09:22:25.520Z,10.60
2018-03-24T09:24:52.915Z,10.56
2018-03-24T09:27:20.310Z,10.58
2018-03-24T09:29:47.693Z,10.57
2018-03-24T09:32:15.082Z,10.80
2018-03-24T09:34:42.473Z,11.05
2018-03-24T09:37:09.879Z,11.22
2018-03-24T09:39:37.273Z,11.30
2018-03-24T09:42:04.685Z,11.48
2018-03-24T09:44:32.093Z,11.69
2018-03-24T09:46:59.495Z,12.07
2018-03-24T09:49:26.961Z,12.44
2018-03-24T09:51:54.348Z,12.84
2018-03-24T09:54:21.736Z,12.68
2018-03-24T09:56:49.116Z,12.62
2018-03-24T09:59:16.542Z,12.91
2018-03-24T10:01:43.901Z,13.25
2018-03-24T10:04:11.285Z,13.64
2018-03-24T10:06:38.664Z,13.62
2018-03-24T10:09:06.057Z,13.84
2018-03-24T10:11:33.441Z,13.76
2018-03-24T10:14:00.841Z,14.15
2018-03-24T10:16:28.213Z,14.28
2018-03-24T10:18:55.596Z,14.71
2018-03-24T10:24:26.676Z,14.90
2018-03-24T10:26:54.065Z,15.48
2018-03-24T10:29:21.452Z,15.93
2018-03-24T10:31:48.854Z,16.13
2018-03-24T10:34:16.232Z,16.23
2018-03-24T10:36:43.619Z,16.06
2018-03-24T10:39:11.009Z,16.16
2018-03-24T10:41:38.400Z,16.17
2018-03-24T10:44:05.794Z,16.06
2018-03-24T10:46:33.180Z,16.29
2018-03-24T10:49:00.565Z,16.90
2018-03-24T10:51:27.957Z,17.15
2018-03-24T10:53:55.337Z,16.85
2018-03-24T10:56:22.732Z,16.57
2018-03-24T10:58:50.112Z,16.77
2018-03-24T11:01:25.026Z,16.24
2018-03-24T11:03:52.412Z,15.75
2018-03-24T11:06:19.799Z,15.60
2018-03-24T11:08:47.188Z,16.10
2018-03-24T11:11:14.595Z,16.40
2018-03-24T11:13:41.968Z,16.23
2018-03-24T11:16:09.353Z,16.76
2018-03-24T11:18:36.732Z,16.60
2018-03-24T11:21:04.127Z,15.66
2018-03-24T11:23:31.527Z,15.20
2018-03-24T11:25:58.900Z,15.81
2018-03-24T11:28:26.296Z,16.29
2018-03-24T11:30:53.676Z,16.24
2018-03-24T11:33:21.064Z,16.51
2018-03-24T11:35:48.462Z,16.44
2018-03-24T11:38:15.888Z,16.49
2018-03-24T11:40:43.273Z,15.99
2018-03-24T11:43:10.669Z,15.72
2018-03-24T11:45:38.044Z,15.96
2018-03-24T11:48:05.444Z,15.98
2018-03-24T11:50:32.838Z,16.32
2018-03-24T11:53:00.224Z,16.14
2018-03-24T11:55:27.604Z,15.80
2018-03-24T11:57:54.993Z,15.28
2018-03-24T12:00:22.392Z,14.97
2018-03-24T12:02:49.768Z,14.94
2018-03-24T12:05:17.161Z,14.84
2018-03-24T12:07:44.549Z,14.86
2018-03-24T12:10:11.933Z,14.72
2018-03-24T12:12:39.340Z,15.04
2018-03-24T12:15:06.725Z,15.19
2018-03-24T12:17:34.129Z,14.92
2018-03-24T12:20:01.561Z,14.95
2018-03-24T12:22:29.040Z,14.95
2018-03-24T12:24:56.428Z,14.90
2018-03-24T12:27:23.837Z,15.69
2018-03-24T12:29:51.232Z,16.38
2018-03-24T12:32:18.620Z,16.24
2018-03-24T12:34:46.012Z,16.94
2018-03-24T12:37:13.401Z,17.32
2018-03-24T12:39:40.837Z,17.21
2018-03-24T12:42:08.203Z,17.62
2018-03-24T12:44:35.593Z,17.65
2018-03-24T12:47:02.976Z,17.58
2018-03-24T12:49:30.376Z,17.57
2018-03-24T12:51:57.756Z,17.41
2018-03-24T12:54:25.146Z,17.71
2018-03-24T12:56:52.532Z,17.47
2018-03-24T12:59:19.932Z,16.90
2018-03-24T13:01:47.320Z,16.56
2018-03-24T13:04:14.705Z,15.84
2018-03-24T13:06:42.106Z,15.28
2018-03-24T13:09:09.495Z,14.99
2018-03-24T13:11:36.876Z,15.35
2018-03-24T13:14:04.265Z,15.40
2018-03-24T13:16:31.657Z,15.48
2018-03-24T13:18:59.048Z,15.74
2018-03-24T13:21:26.436Z,15.77
2018-03-24T13:23:53.829Z,16.02
2018-03-24T13:26:21.213Z,15.87
2018-03-24T13:28:48.617Z,15.61
2018-03-24T13:31:16.005Z,15.11
2018-03-24T13:33:43.389Z,15.38
2018-03-24T13:36:10.781Z,15.65
2018-03-24T13:38:38.164Z,15.88
2018-03-24T13:41:05.565Z,15.75
2018-03-24T13:43:32.954Z,15.49
2018-03-24T13:46:00.343Z,15.17
2018-03-24T13:48:27.721Z,14.95
2018-03-24T13:50:55.120Z,14.91
2018-03-24T13:53:22.501Z,14.65
2018-03-24T13:55:49.884Z,14.53
2018-03-24T13:58:17.273Z,14.55
2018-03-24T14:00:44.661Z,14.61
2018-03-24T14:03:12.052Z,14.69
2018-03-24T14:05:40.462Z,14.81
2018-03-24T14:08:07.848Z,15.02
2018-03-24T14:10:35.253Z,15.05
2018-03-24T14:13:02.644Z,15.10
2018-03-24T14:15:30.040Z,15.26
2018-03-24T14:17:57.416Z,15.17
2018-03-24T14:20:24.808Z,15.11
2018-03-24T14:22:52.233Z,15.14
2018-03-24T14:25:19.622Z,15.05
2018-03-24T14:27:47.004Z,15.00
2018-03-24T14:30:14.400Z,15.02
2018-03-24T14:32:41.785Z,14.97
2018-03-24T14:35:09.177Z,15.06
2018-03-24T14:37:36.568Z,15.26
2018-03-24T14:40:03.965Z,15.23
2018-03-24T14:42:31.356Z,15.24
2018-03-24T14:44:58.744Z,15.03
2018-03-24T14:47:26.137Z,14.92
2018-03-24T14:49:53.520Z,15.00
2018-03-24T14:52:20.924Z,15.24
2018-03-24T14:54:48.317Z,15.19
2018-03-24T14:57:15.730Z,15.10
2018-03-24T14:59:43.136Z,15.20
2018-03-24T15:02:10.512Z,15.31
2018-03-24T15:04:37.912Z,15.21
2018-03-24T15:07:05.300Z,15.01
2018-03-24T15:09:32.693Z,14.52
2018-03-24T15:12:00.093Z,14.35
2018-03-24T15:14:27.488Z,14.20
2018-03-24T15:16:54.878Z,14.07
2018-03-24T15:19:22.273Z,13.97
2018-03-24T15:21:49.660Z,13.89
2018-03-24T15:24:17.040Z,13.77
2018-03-24T15:26:44.432Z,13.66
2018-03-24T15:29:23.653Z,13.60
2018-03-24T15:32:02.892Z,13.52
2018-03-24T15:34:42.038Z,13.55
2018-03-24T15:37:09.432Z,13.58
2018-03-24T15:39:36.821Z,13.70
2018-03-24T15:42:04.217Z,13.80
2018-03-24T15:44:31.593Z,13.75
2018-03-24T15:46:59.008Z,13.74
2018-03-24T15:49:26.390Z,13.62
2018-03-24T15:51:53.775Z,13.67
2018-03-24T15:54:21.168Z,13.67
2018-03-24T15:56:48.544Z,13.56
2018-03-24T15:59:15.938Z,13.58
2018-03-24T16:01:43.325Z,13.56
2018-03-24T16:04:10.725Z,13.63
2018-03-24T16:06:38.112Z,13.65
2018-03-24T16:09:05.505Z,13.61
2018-03-24T16:11:32.893Z,13.53
2018-03-24T16:14:00.278Z,13.46
2018-03-24T16:16:27.668Z,13.46
2018-03-24T16:18:55.083Z,13.48
2018-03-24T16:21:22.521Z,13.32
2018-03-24T16:23:49.901Z,13.38
2018-03-24T16:26:17.296Z,13.37
2018-03-24T16:28:44.685Z,13.24
2018-03-24T16:31:12.072Z,13.33
2018-03-24T16:33:39.464Z,13.22
2018-03-24T16:36:06.864Z,13.25
2018-03-24T16:38:34.287Z,13.34
2018-03-24T16:41:01.661Z,13.40
2018-03-24T16:43:29.072Z,13.26
2018-03-24T16:45:56.448Z,13.30
2018-03-24T16:48:23.838Z,13.25
2018-03-24T16:50:51.226Z,13.28
2018-03-24T16:53:18.653Z,13.28
2018-03-24T16:55:46.040Z,13.29
2018-03-24T16:58:13.431Z,13.17
2018-03-24T17:00:40.825Z,13.14
2018-03-24T17:03:08.229Z,13.04
2018-03-24T17:05:35.624Z,12.89
2018-03-24T17:08:04.037Z,12.82
2018-03-24T17:10:31.442Z,12.80
2018-03-24T17:12:59.160Z,12.75
2018-03-24T17:15:26.537Z,12.68
2018-03-24T17:17:54.230Z,12.55
2018-03-24T17:20:21.625Z,12.45
2018-03-24T17:22:49.016Z,12.47
2018-03-24T17:25:16.400Z,12.30
2018-03-24T17:27:43.793Z,12.23
2018-03-24T17:30:11.214Z,12.10
2018-03-24T17:32:38.632Z,12.15
2018-03-24T17:35:06.061Z,12.07
2018-03-24T17:37:33.442Z,11.90
2018-03-24T17:40:00.822Z,11.86
2018-03-24T17:42:28.211Z,11.85
2018-03-24T17:44:55.592Z,11.75
2018-03-24T17:47:22.982Z,11.67
2018-03-24T17:49:50.392Z,11.57
2018-03-24T17:52:17.769Z,11.43
2018-03-24T17:54:45.184Z,11.35
2018-03-24T17:57:12.576Z,11.24
2018-03-24T17:59:39.984Z,11.14
2018-03-24T18:02:07.384Z,11.06
2018-03-24T18:04:34.817Z,11.01
2018-03-24T18:07:02.221Z,10.92
2018-03-24T18:09:29.633Z,10.80
2018-03-24T18:11:57.029Z,10.81
2018-03-24T18:14:24.428Z,10.75
2018-03-24T18:16:51.813Z,10.62
2018-03-24T18:19:19.197Z,10.52
2018-03-24T18:21:46.588Z,10.44
2018-03-24T18:24:13.963Z,10.36
2018-03-24T18:26:41.361Z,10.23
2018-03-24T18:29:08.736Z,10.09
2018-03-24T18:31:36.123Z,9.93
2018-03-24T18:34:03.505Z,9.84
2018-03-24T18:36:30.893Z,9.76
2018-03-24T18:38:58.281Z,9.68
2018-03-24T18:41:25.684Z,9.56
2018-03-24T18:43:53.621Z,9.48
2018-03-24T18:46:21.000Z,9.40
2018-03-24T18:48:48.383Z,9.41
2018-03-24T18:51:15.795Z,9.38
2018-03-24T18:53:43.169Z,9.36
2018-03-24T18:56:10.549Z,9.27
2018-03-24T18:58:37.981Z,9.24
2018-03-24T19:01:05.365Z,9.20
2018-03-24T19:03:32.774Z,9.10
2018-03-24T19:06:00.157Z,9.03
2018-03-24T19:08:27.529Z,8.93
2018-03-24T19:10:54.934Z,8.89
2018-03-24T19:13:22.317Z,8.85
2018-03-24T19:15:49.706Z,8.73
2018-03-24T19:18:17.098Z,8.68
2018-03-24T19:20:44.479Z,8.66
2018-03-24T19:23:11.866Z,8.59
2018-03-24T19:25:39.257Z,8.52
2018-03-24T19:28:06.911Z,8.46
2018-03-24T19:30:34.284Z,8.42
2018-03-24T19:33:01.678Z,8.34
2018-03-24T19:35:29.058Z,8.26
2018-03-24T19:37:56.432Z,8.20
2018-03-24T19:40:23.834Z,8.17
2018-03-24T19:42:51.226Z,8.09
2018-03-24T19:45:18.609Z,8.08
2018-03-24T19:47:45.992Z,8.04
2018-03-24T19:50:13.372Z,7.97
2018-03-24T19:52:40.764Z,7.90
2018-03-24T19:55:08.151Z,7.88
2018-03-24T19:57:35.550Z,7.84
2018-03-24T20:00:03.012Z,7.85
2018-03-24T20:02:30.409Z,7.81
2018-03-24T20:04:57.810Z,7.75
2018-03-24T20:07:25.191Z,7.80
2018-03-24T20:09:52.564Z,7.87
2018-03-24T20:12:20.021Z,7.88
2018-03-24T20:14:47.400Z,7.89
2018-03-24T20:17:14.909Z,7.90
2018-03-24T20:19:42.545Z,7.83
2018-03-24T20:22:09.945Z,7.78
2018-03-24T20:24:37.322Z,7.71
2018-03-24T20:27:04.722Z,7.68
2018-03-24T20:29:32.104Z,7.60
2018-03-24T20:31:59.553Z,7.62
2018-03-24T20:34:27.820Z,7.59
2018-03-24T20:36:55.202Z,7.56
2018-03-24T20:39:22.600Z,7.52
2018-03-24T20:41:49.989Z,7.44
2018-03-24T20:44:17.372Z,7.49
2018-03-24T20:46:44.763Z,7.44
2018-03-24T20:49:12.144Z,7.38
2018-03-24T20:51:39.536Z,7.29
2018-03-24T20:54:07.303Z,7.28
2018-03-24T20:56:34.617Z,7.26
2018-03-24T20:59:02.021Z,7.19
2018-03-24T21:01:29.424Z,7.13
2018-03-24T21:03:56.778Z,7.12
2018-03-24T21:06:24.173Z,7.06
2018-03-24T21:08:51.557Z,7.01
2018-03-24T21:11:18.936Z,7.00
2018-03-24T21:13:46.325Z,6.93
2018-03-24T21:16:13.701Z,6.94
2018-03-24T21:18:41.079Z,6.96
2018-03-24T21:21:08.479Z,6.95
2018-03-24T21:23:35.855Z,6.93
2018-03-24T21:26:03.577Z,6.88
2018-03-24T21:28:30.952Z,6.87
2018-03-24T21:30:58.333Z,6.85
2018-03-24T21:33:25.720Z,6.84
2018-03-24T21:35:53.101Z,6.88
2018-03-24T21:38:20.512Z,6.86
2018-03-24T21:40:47.888Z,6.80
2018-03-24T21:43:15.268Z,6.67
2018-03-24T21:45:42.656Z,6.70
2018-03-24T21:48:10.040Z,6.64
2018-03-24T21:50:37.444Z,6.59
2018-03-24T21:53:04.817Z,6.52
2018-03-24T21:55:32.196Z,6.48
2018-03-24T21:57:59.596Z,6.43
2018-03-24T22:00:26.981Z,6.39
2018-03-24T22:02:54.396Z,6.40
2018-03-24T22:05:21.777Z,6.36
2018-03-24T22:07:49.156Z,6.37
2018-03-24T22:10:16.545Z,6.45
2018-03-24T22:12:43.933Z,6.51
2018-03-24T22:15:11.318Z,6.49
2018-03-24T22:17:38.697Z,6.60
2018-03-24T22:20:06.082Z,6.53
2018-03-24T22:22:33.530Z,6.53
2018-03-24T22:25:00.892Z,6.58
2018-03-24T22:27:28.278Z,6.58
2018-03-24T22:29:55.657Z,6.42
2018-03-24T22:32:23.048Z,6.45
2018-03-24T22:34:50.452Z,6.37
2018-03-24T22:37:17.833Z,6.29
2018-03-24T22:39:45.307Z,6.19
2018-03-24T22:42:12.613Z,6.16
2018-03-24T22:44:40.006Z,6.12
2018-03-24T22:47:07.392Z,6.10
2018-03-24T22:49:34.769Z,6.04
2018-03-24T22:52:02.157Z,6.01
2018-03-24T22:54:29.549Z,5.93
2018-03-24T22:56:56.941Z,5.85
2018-03-24T22:59:24.334Z,5.78
2018-03-24T23:01:51.711Z,5.68
2018-03-24T23:04:19.088Z,5.53
2018-03-24T23:06:46.468Z,5.41
2018-03-24T23:09:13.860Z,5.27
2018-03-24T23:11:41.301Z,5.19
2018-03-24T23:14:08.621Z,5.06
2018-03-24T23:16:36.021Z,4.96
2018-03-24T23:19:03.393Z,4.94
2018-03-24T23:21:30.789Z,4.95
2018-03-24T23:23:58.169Z,4.90
2018-03-24T23:26:25.553Z,4.86
2018-03-24T23:28:52.958Z,4.73
2018-03-24T23:31:20.333Z,4.63
2018-03-24T23:33:47.736Z,4.60
2018-03-24T23:36:15.110Z,4.67
2018-03-24T23:38:42.488Z,4.69
2018-03-24T23:41:09.877Z,4.71
2018-03-24T23:43:37.256Z,4.77
2018-03-24T23:46:04.655Z,4.80
2018-03-24T23:48:32.029Z,4.82
2018-03-24T23:50:59.408Z,4.81
2018-03-24T23:53:26.795Z,4.80
2018-03-24T23:55:54.175Z,4.82
2018-03-24T23:58:21.566Z,4.84
